Time;durP1;ratioP1;P1;durP2;ratioP2;P2;SDS_P1;SDS_P2;PMS_P1;PMS_P2;Temp;Humidity;BMP_temperature;BMP_pressure;BME280_temperature;BME280_humidity;BME280_pressure;Samples;Min_cycle;Max_cycle;Signal;HPM_P1;HPM_P2
2021/04/07 00:02:18;;;;;;;3.42;1.52;;;5.00;72.60;;;;;;5068131;28;20028;-57
2021/04/07 00:05:01;;;;;;;2.72;1.40;;;5.10;72.60;;;;;;5067589;28;20071;-57
2021/04/07 00:07:27;;;;;;;3.95;1.38;;;5.00;72.80;;;;;;5065771;28;20035;-57
2021/04/07 00:09:53;;;;;;;2.83;1.75;;;5.10;72.50;;;;;;5068059;28;20403;-57
2021/04/07 00:12:19;;;;;;;4.05;1.23;;;5.00;72.60;;;;;;5067886;28;20025;-57
2021/04/07 00:14:45;;;;;;;3.55;1.50;;;5.00;73.00;;;;;;5067440;28;21024;-57
2021/04/07 00:17:11;;;;;;;4.45;1.85;;;4.70;74.70;;;;;;5067736;28;20037;-57
2021/04/07 00:19:37;;;;;;;4.78;1.77;;;4.50;77.70;;;;;;5067267;28;20027;-58
2021/04/07 00:22:03;;;;;;;4.38;1.70;;;4.60;78.40;;;;;;5066727;28;20130;-57
2021/04/07 00:24:29;;;;;;;2.80;1.35;;;4.60;79.10;;;;;;5067208;28;20029;-57
2021/04/07 00:26:54;;;;;;;2.78;1.35;;;4.80;78.90;;;;;;5067199;28;20032;-57
2021/04/07 00:29:20;;;;;;;2.67;1.58;;;4.70;78.50;;;;;;5067701;28;20544;-57
2021/04/07 00:31:45;;;;;;;2.45;1.40;;;4.80;78.60;;;;;;5067530;28;20110;-57
2021/04/07 00:34:11;;;;;;;3.83;1.40;;;4.40;80.10;;;;;;5067381;28;20027;-57
2021/04/07 00:36:37;;;;;;;3.58;1.65;;;4.50;80.80;;;;;;5067068;28;20475;-57
2021/04/07 00:39:03;;;;;;;2.45;1.48;;;4.40;82.30;;;;;;5067820;28;20073;-57
2021/04/07 00:41:28;;;;;;;3.50;1.60;;;4.10;90.40;;;;;;5067210;28;20028;-57
2021/04/07 00:43:55;;;;;;;4.97;1.60;;;3.70;96.40;;;;;;5067204;28;20025;-57
2021/04/07 00:46:21;;;;;;;4.53;1.60;;;3.40;99.30;;;;;;5067410;28;20074;-57
2021/04/07 00:48:46;;;;;;;3.35;1.35;;;3.30;99.90;;;;;;5067133;28;20020;-57
2021/04/07 00:51:13;;;;;;;2.30;1.20;;;3.30;99.90;;;;;;5067368;28;20311;-57
2021/04/07 00:53:39;;;;;;;4.20;0.90;;;3.60;99.90;;;;;;5066798;28;20031;-57
2021/04/07 00:56:05;;;;;;;3.15;1.10;;;3.70;99.90;;;;;;5067511;28;20032;-56
2021/04/07 00:58:30;;;;;;;1.65;0.73;;;3.70;99.90;;;;;;5067501;28;20386;-56
2021/04/07 01:00:57;;;;;;;2.15;1.00;;;3.80;99.90;;;;;;5067110;28;20028;-56
2021/04/07 01:03:24;;;;;;;2.95;1.15;;;4.10;99.90;;;;;;5066743;28;20498;-56
2021/04/07 01:05:50;;;;;;;0.93;0.73;;;4.10;99.90;;;;;;5066093;28;20131;-57
2021/04/07 01:08:15;;;;;;;1.98;0.90;;;4.30;99.90;;;;;;5066353;28;20127;-57
2021/04/07 01:10:41;;;;;;;1.70;0.90;;;4.10;99.90;;;;;;5066405;28;20043;-57
2021/04/07 01:13:06;;;;;;;1.73;0.93;;;4.10;99.90;;;;;;5067236;28;20422;-57
2021/04/07 01:15:33;;;;;;;1.20;0.75;;;3.90;99.90;;;;;;5066955;28;20028;-57
2021/04/07 01:18:00;;;;;;;2.97;1.20;;;4.10;99.90;;;;;;5066798;28;20017;-57
2021/04/07 01:20:26;;;;;;;2.92;1.15;;;3.90;99.90;;;;;;5066615;28;20107;-57
2021/04/07 01:23:00;;;;;;;1.05;0.80;;;3.80;99.90;;;;;;5066629;28;20444;-57
2021/04/07 01:25:27;;;;;;;3.00;0.88;;;3.80;99.90;;;;;;5066187;28;20028;-57
2021/04/07 01:27:54;;;;;;;1.30;0.80;;;3.90;99.90;;;;;;5066710;28;20036;-57
2021/04/07 01:30:21;;;;;;;2.42;0.80;;;4.10;99.90;;;;;;5066845;28;20393;-57
2021/04/07 01:32:47;;;;;;;2.60;0.80;;;4.10;99.90;;;;;;5066231;28;20039;-57
2021/04/07 01:35:15;;;;;;;0.93;0.60;;;3.90;99.90;;;;;;5066722;28;20024;-56
2021/04/07 01:37:41;;;;;;;2.17;0.80;;;3.80;99.90;;;;;;5065976;28;20044;-56
2021/04/07 01:40:13;;;;;;;2.47;0.75;;;3.90;99.90;;;;;;5066463;28;20024;-56
2021/04/07 01:42:42;;;;;;;3.80;0.85;;;4.00;99.90;;;;;;5066141;28;20448;-57
2021/04/07 01:45:09;;;;;;;2.75;0.80;;;4.10;99.90;;;;;;5066292;28;20024;-57
2021/04/07 01:47:35;;;;;;;1.40;0.80;;;4.00;99.90;;;;;;5066560;28;20047;-57
2021/04/07 01:50:04;;;;;;;1.98;0.90;;;3.90;99.90;;;;;;5066743;28;20466;-57
2021/04/07 01:52:30;;;;;;;1.48;0.93;;;4.10;99.90;;;;;;5066342;28;20128;-56
2021/04/07 01:54:58;;;;;;;2.03;0.80;;;4.00;99.90;;;;;;5066188;28;20024;-57
2021/04/07 01:57:24;;;;;;;1.55;0.80;;;4.10;99.90;;;;;;5065880;28;20024;-57
2021/04/07 01:59:50;;;;;;;1.58;0.82;;;4.10;99.90;;;;;;5065755;28;20089;-56
2021/04/07 02:02:16;;;;;;;1.02;0.80;;;4.10;99.90;;;;;;5066156;28;20081;-57
2021/04/07 02:04:42;;;;;;;1.55;1.00;;;4.10;99.90;;;;;;5065333;28;20024;-57
2021/04/07 02:07:16;;;;;;;1.27;0.80;;;4.10;99.90;;;;;;5065704;28;20070;-57
2021/04/07 02:09:41;;;;;;;1.67;0.88;;;4.20;99.90;;;;;;5065261;28;20033;-57
2021/04/07 02:12:08;;;;;;;1.27;0.68;;;4.20;99.90;;;;;;5065653;28;20040;-57
2021/04/07 02:14:34;;;;;;;1.23;0.68;;;4.20;99.90;;;;;;5066002;28;20406;-56
2021/04/07 02:17:02;;;;;;;2.15;0.95;;;4.10;99.90;;;;;;5065337;28;20410;-56
2021/04/07 02:19:29;;;;;;;2.63;0.80;;;4.30;99.90;;;;;;5064842;28;20024;-56
2021/04/07 02:22:12;;;;;;;1.60;0.73;;;4.20;99.90;;;;;;5065720;28;20043;-56
2021/04/07 02:24:40;;;;;;;0.70;0.70;;;4.00;99.90;;;;;;5044699;28;20051;-57
2021/04/07 02:27:13;;;;;;;1.27;0.82;;;4.00;99.90;;;;;;5045385;28;20037;-56
2021/04/07 02:29:39;;;;;;;2.45;0.80;;;4.00;99.90;;;;;;5045176;28;20103;-57
2021/04/07 02:32:05;;;;;;;2.03;1.10;;;3.90;99.90;;;;;;5045401;28;20047;-56
2021/04/07 02:34:32;;;;;;;0.77;0.70;;;4.10;99.90;;;;;;5044272;28;20029;-56
2021/04/07 02:36:59;;;;;;;1.65;0.80;;;4.00;99.90;;;;;;5045985;28;20029;-56
2021/04/07 02:39:25;;;;;;;1.75;0.90;;;4.10;99.90;;;;;;5045261;28;20064;-56
2021/04/07 02:41:51;;;;;;;0.93;0.60;;;4.00;99.90;;;;;;5043941;28;20060;-56
2021/04/07 02:44:17;;;;;;;1.60;0.85;;;4.00;99.90;;;;;;5044955;28;20734;-57
2021/04/07 02:46:43;;;;;;;1.55;0.80;;;4.20;99.90;;;;;;5044884;28;20032;-57
2021/04/07 02:49:10;;;;;;;1.50;0.70;;;4.30;99.90;;;;;;5044906;28;20021;-57
2021/04/07 02:51:37;;;;;;;2.05;0.88;;;4.20;99.90;;;;;;5044612;28;20043;-57
2021/04/07 02:54:03;;;;;;;1.77;1.00;;;4.10;99.90;;;;;;5044117;28;20029;-57
2021/04/07 02:56:30;;;;;;;1.10;0.73;;;3.90;99.90;;;;;;5044818;28;20543;-56
2021/04/07 02:58:56;;;;;;;1.80;0.90;;;4.10;99.90;;;;;;5045015;28;20032;-55
2021/04/07 03:01:22;;;;;;;0.75;0.75;;;4.00;99.90;;;;;;5044685;28;20139;-56
2021/04/07 03:03:47;;;;;;;1.75;1.15;;;4.00;99.90;;;;;;5044414;28;20114;-56
2021/04/07 03:06:13;;;;;;;1.50;0.88;;;3.80;99.90;;;;;;5044801;28;20072;-56
2021/04/07 03:08:39;;;;;;;3.17;0.90;;;3.60;99.90;;;;;;5043852;28;20578;-56
2021/04/07 03:11:06;;;;;;;1.67;0.90;;;3.60;99.90;;;;;;5044662;28;20356;-57
2021/04/07 03:13:32;;;;;;;1.25;0.80;;;3.50;99.90;;;;;;5042848;28;20653;-57
2021/04/07 03:15:58;;;;;;;2.88;1.05;;;3.50;99.90;;;;;;5045324;28;20029;-57
2021/04/07 03:18:23;;;;;;;1.77;0.90;;;3.80;99.90;;;;;;5044092;28;20092;-56
2021/04/07 03:20:50;;;;;;;1.73;1.05;;;3.70;99.90;;;;;;5044335;28;20017;-56
2021/04/07 03:23:17;;;;;;;4.22;1.23;;;3.80;99.90;;;;;;5044588;28;20021;-56
2021/04/07 03:25:43;;;;;;;4.03;1.83;;;3.60;99.90;;;;;;5044236;28;20104;-56
2021/04/07 03:28:09;;;;;;;3.85;1.40;;;3.70;99.90;;;;;;5043965;28;20021;-56
2021/04/07 03:30:50;;;;;;;4.10;1.95;;;3.40;99.90;;;;;;5044335;28;20082;-56
2021/04/07 03:33:18;;;;;;;7.30;3.47;;;3.30;99.90;;;;;;5044064;28;20107;-55
2021/04/07 03:35:43;;;;;;;6.47;2.08;;;3.60;99.90;;;;;;5043501;28;20444;-55
2021/04/07 03:38:10;;;;;;;3.85;1.83;;;3.60;99.90;;;;;;5044497;28;20369;-56
2021/04/07 03:40:37;;;;;;;5.13;1.77;;;3.40;99.90;;;;;;5044246;28;20033;-56
2021/04/07 03:43:05;;;;;;;4.10;1.67;;;3.30;99.90;;;;;;5044216;28;20028;-56
2021/04/07 03:45:32;;;;;;;3.22;1.27;;;3.40;99.90;;;;;;5044579;28;20469;-56
2021/04/07 03:47:58;;;;;;;1.70;1.00;;;3.20;99.90;;;;;;5044584;28;20025;-56
2021/04/07 03:50:23;;;;;;;1.40;1.10;;;3.40;99.90;;;;;;5044407;28;20092;-56
2021/04/07 03:52:49;;;;;;;2.35;1.10;;;3.30;99.90;;;;;;5044096;28;20872;-56
2021/04/07 03:55:15;;;;;;;2.13;1.17;;;3.20;99.90;;;;;;5044121;28;20037;-55
2021/04/07 03:57:40;;;;;;;3.30;1.15;;;3.10;99.90;;;;;;5043839;28;20084;-55
2021/04/07 04:00:06;;;;;;;3.40;1.40;;;3.10;99.90;;;;;;5044258;28;20143;-55
2021/04/07 04:02:32;;;;;;;2.22;1.30;;;3.10;99.90;;;;;;5043772;28;20021;-56
2021/04/07 04:04:58;;;;;;;2.33;1.00;;;3.10;99.90;;;;;;5044739;28;20025;-56
2021/04/07 04:07:23;;;;;;;3.13;1.17;;;3.10;99.90;;;;;;5043693;28;20025;-56
2021/04/07 04:09:50;;;;;;;5.78;1.40;;;3.30;99.90;;;;;;5043705;28;20029;-56
2021/04/07 04:12:15;;;;;;;2.75;1.33;;;3.40;99.90;;;;;;5044080;28;20511;-57
2021/04/07 04:14:41;;;;;;;2.75;1.20;;;3.30;99.90;;;;;;5043619;28;20064;-56
2021/04/07 04:17:07;;;;;;;2.63;1.33;;;3.40;99.90;;;;;;5048033;28;20144;-56
2021/04/07 04:19:32;;;;;;;5.22;1.27;;;3.40;99.90;;;;;;5045322;28;20028;-56
2021/04/07 04:21:58;;;;;;;2.60;1.27;;;3.40;99.90;;;;;;5050668;28;20033;-56
2021/04/07 04:24:24;;;;;;;3.28;1.10;;;3.30;99.90;;;;;;5065539;28;20374;-56
2021/04/07 04:26:49;;;;;;;4.10;1.58;;;3.40;99.90;;;;;;5057278;28;20467;-56
2021/04/07 04:29:15;;;;;;;3.08;1.63;;;3.40;99.90;;;;;;5045899;28;20037;-56
2021/04/07 04:31:41;;;;;;;2.08;1.27;;;3.50;99.90;;;;;;5050504;28;20546;-55
2021/04/07 04:34:06;;;;;;;1.80;1.10;;;3.40;99.90;;;;;;5064956;28;20542;-56
2021/04/07 04:36:32;;;;;;;2.03;1.27;;;3.30;99.90;;;;;;5065028;28;20063;-56
2021/04/07 04:38:57;;;;;;;3.00;1.27;;;3.40;99.90;;;;;;5067130;28;20166;-56
2021/04/07 04:41:23;;;;;;;3.70;1.10;;;3.30;99.90;;;;;;5069121;28;20032;-56
2021/04/07 04:43:49;;;;;;;5.63;1.63;;;3.50;99.90;;;;;;5067768;28;20543;-56
2021/04/07 04:46:15;;;;;;;4.32;1.60;;;3.30;99.90;;;;;;5069315;28;20190;-56
2021/04/07 04:48:40;;;;;;;4.68;1.55;;;3.30;99.90;;;;;;5069311;28;20521;-56
2021/04/07 04:51:06;;;;;;;4.95;2.38;;;3.30;99.90;;;;;;5065672;28;20477;-57
2021/04/07 04:53:32;;;;;;;5.00;2.05;;;3.40;99.90;;;;;;5048180;28;20479;-56
2021/04/07 04:55:58;;;;;;;4.70;2.22;;;3.30;99.90;;;;;;5048232;28;20036;-56
2021/04/07 04:58:24;;;;;;;5.30;2.42;;;3.30;99.90;;;;;;5047145;28;20155;-56
2021/04/07 05:00:50;;;;;;;5.03;2.38;;;3.30;99.90;;;;;;5046877;28;20120;-57
2021/04/07 05:03:15;;;;;;;3.90;2.00;;;3.40;99.90;;;;;;5047713;28;20036;-56
2021/04/07 05:05:41;;;;;;;5.72;2.03;;;3.20;99.90;;;;;;5061001;28;20033;-56
2021/04/07 05:08:07;;;;;;;4.07;2.05;;;3.30;99.90;;;;;;5047455;28;20025;-57
2021/04/07 05:10:33;;;;;;;4.18;2.38;;;3.30;99.90;;;;;;5046614;28;20032;-57
2021/04/07 05:12:59;;;;;;;3.83;1.95;;;3.30;99.90;;;;;;5046945;28;20028;-57
2021/04/07 05:15:24;;;;;;;4.07;2.10;;;3.30;99.90;;;;;;5046744;28;20036;-57
2021/04/07 05:17:50;;;;;;;5.63;2.08;;;3.20;99.90;;;;;;5046650;28;20102;-57
2021/04/07 05:20:16;;;;;;;4.20;2.00;;;3.30;99.90;;;;;;5046910;28;20365;-57
2021/04/07 05:22:43;;;;;;;3.83;2.75;;;3.30;99.90;;;;;;5047231;28;20372;-56
2021/04/07 05:25:09;;;;;;;5.93;2.78;;;3.20;99.90;;;;;;5046992;28;20017;-56
2021/04/07 05:27:35;;;;;;;4.15;2.22;;;3.10;99.90;;;;;;5046366;28;20044;-57
2021/04/07 05:30:01;;;;;;;5.18;2.92;;;3.20;99.90;;;;;;5046492;28;20029;-57
2021/04/07 05:32:28;;;;;;;5.50;3.50;;;3.10;99.90;;;;;;5045043;28;20510;-56
2021/04/07 05:34:53;;;;;;;5.53;3.45;;;3.20;99.90;;;;;;5046337;28;20453;-56
2021/04/07 05:37:19;;;;;;;6.03;3.60;;;3.10;99.90;;;;;;5046389;28;20025;-56
2021/04/07 05:39:46;;;;;;;5.80;3.10;;;3.10;99.90;;;;;;5046539;28;20025;-57
2021/04/07 05:42:12;;;;;;;4.53;2.50;;;2.90;99.90;;;;;;5046978;28;20025;-56
2021/04/07 05:44:37;;;;;;;3.20;2.05;;;3.00;99.90;;;;;;5046015;28;20100;-57
2021/04/07 05:47:03;;;;;;;3.88;2.03;;;3.00;99.90;;;;;;5044942;28;20115;-56
2021/04/07 05:49:28;;;;;;;4.40;2.08;;;3.10;99.90;;;;;;5046122;28;20025;-57
2021/04/07 05:51:54;;;;;;;3.75;1.92;;;3.00;99.90;;;;;;5045688;28;20040;-56
2021/04/07 05:54:21;;;;;;;2.63;1.83;;;2.90;99.90;;;;;;5046066;28;20119;-57
2021/04/07 05:56:47;;;;;;;4.30;1.77;;;2.90;99.90;;;;;;5045846;28;20025;-57
2021/04/07 05:59:13;;;;;;;4.10;1.90;;;3.10;99.90;;;;;;5046724;28;20053;-56
2021/04/07 06:01:40;;;;;;;9.88;4.40;;;3.10;99.90;;;;;;5045486;28;20483;-56
2021/04/07 06:04:05;;;;;;;7.35;3.40;;;2.90;99.90;;;;;;5045889;28;20029;-57
2021/04/07 06:06:31;;;;;;;5.10;2.53;;;2.80;99.90;;;;;;5045543;28;20079;-56
2021/04/07 06:08:57;;;;;;;4.03;1.88;;;2.70;99.90;;;;;;5045143;28;20040;-56
2021/04/07 06:11:23;;;;;;;3.47;1.65;;;2.90;99.90;;;;;;5045810;28;20041;-57
2021/04/07 06:13:49;;;;;;;4.50;1.85;;;3.10;99.90;;;;;;5044174;28;20021;-57
2021/04/07 06:16:15;;;;;;;3.13;1.75;;;3.00;99.90;;;;;;5066167;28;20028;-56
2021/04/07 06:18:42;;;;;;;3.53;1.45;;;3.10;99.90;;;;;;5065318;28;20537;-57
2021/04/07 06:21:08;;;;;;;2.53;1.67;;;2.90;99.90;;;;;;5064212;28;20082;-57
2021/04/07 06:23:34;;;;;;;2.67;1.13;;;3.00;99.90;;;;;;5065864;28;20017;-56
2021/04/07 06:26:00;;;;;;;4.57;1.50;;;3.20;99.90;;;;;;5065518;28;20414;-57
2021/04/07 06:28:27;;;;;;;3.20;1.67;;;3.30;99.90;;;;;;5065311;28;20024;-57
2021/04/07 06:30:52;;;;;;;4.18;1.75;;;3.30;99.90;;;;;;5061145;28;20036;-56
2021/04/07 06:33:27;;;;;;;2.55;2.00;;;3.30;99.90;;;;;;5058188;28;20399;-56
2021/04/07 06:35:55;;;;;;;4.65;3.35;;;3.10;99.90;;;;;;5046545;28;20085;-56
2021/04/07 06:38:21;;;;;;;6.07;2.70;;;3.10;99.90;;;;;;5059711;28;20024;-57
2021/04/07 06:40:49;;;;;;;4.35;2.10;;;3.10;99.90;;;;;;5066513;28;20024;-57
2021/04/07 06:43:16;;;;;;;4.05;2.63;;;3.00;99.90;;;;;;5067263;28;20025;-57
2021/04/07 06:45:42;;;;;;;6.10;2.83;;;3.00;99.90;;;;;;5065570;28;20474;-56
2021/04/07 06:48:09;;;;;;;4.78;2.72;;;2.90;99.90;;;;;;5066018;28;20066;-56
2021/04/07 06:50:37;;;;;;;4.70;2.90;;;2.70;99.90;;;;;;5064845;28;20093;-56
2021/04/07 06:53:08;;;;;;;5.90;2.83;;;2.70;99.90;;;;;;5064757;28;20479;-56
2021/04/07 06:55:35;;;;;;;5.78;2.47;;;2.70;99.90;;;;;;5061037;28;20028;-57
2021/04/07 06:58:05;;;;;;;3.85;2.13;;;2.70;99.90;;;;;;5064865;28;20036;-56
2021/04/07 07:00:32;;;;;;;4.63;2.80;;;3.00;99.90;;;;;;5064753;28;20111;-56
2021/04/07 07:03:06;;;;;;;5.90;2.70;;;2.80;99.90;;;;;;5064168;28;20028;-55
2021/04/07 07:05:34;;;;;;;7.50;2.42;;;2.70;99.90;;;;;;5048271;28;20083;-57
2021/04/07 07:08:01;;;;;;;4.07;1.90;;;3.00;99.90;;;;;;5049090;28;20506;-56
2021/04/07 07:10:42;;;;;;;2.33;1.67;;;3.20;99.90;;;;;;5064428;28;20031;-57
2021/04/07 07:13:09;;;;;;;2.55;1.48;;;3.50;99.90;;;;;;5063468;28;20462;-56
2021/04/07 07:15:37;;;;;;;2.58;1.48;;;3.60;99.90;;;;;;5064187;28;20035;-56
2021/04/07 07:18:04;;;;;;;2.22;1.20;;;3.70;99.90;;;;;;5060109;28;20498;-57
2021/04/07 07:20:33;;;;;;;3.05;1.45;;;3.70;99.90;;;;;;5044600;28;20017;-57
2021/04/07 07:23:00;;;;;;;3.03;1.55;;;3.80;99.90;;;;;;5052023;28;20013;-56
2021/04/07 07:25:26;;;;;;;1.80;1.40;;;3.60;99.90;;;;;;5054659;28;20375;-56
2021/04/07 07:28:05;;;;;;;4.25;1.70;;;3.60;99.90;;;;;;5058515;28;20021;-56
2021/04/07 07:30:41;;;;;;;2.28;1.40;;;3.90;99.90;;;;;;5059646;28;20809;-56
2021/04/07 07:33:14;;;;;;;1.52;1.23;;;4.10;99.90;;;;;;5066677;28;20035;-56
2021/04/07 07:35:41;;;;;;;1.83;1.40;;;4.40;99.90;;;;;;5065943;28;20060;-56
2021/04/07 07:38:07;;;;;;;2.85;1.50;;;4.50;99.90;;;;;;5064774;28;20112;-56
2021/04/07 07:40:33;;;;;;;2.92;1.60;;;4.40;99.90;;;;;;5052522;28;20566;-56
2021/04/07 07:42:58;;;;;;;2.25;1.63;;;4.50;99.90;;;;;;5046340;28;20029;-56
2021/04/07 07:45:36;;;;;;;2.10;1.23;;;4.30;99.80;;;;;;5045957;28;20383;-56
2021/04/07 07:48:07;;;;;;;3.13;1.40;;;4.50;99.90;;;;;;5046166;28;20060;-56
2021/04/07 07:50:38;;;;;;;2.70;1.55;;;4.50;99.80;;;;;;5046081;28;20515;-56
2021/04/07 07:53:11;;;;;;;3.03;1.55;;;4.50;99.80;;;;;;5046158;28;20052;-56
2021/04/07 07:55:42;;;;;;;1.80;1.23;;;4.60;99.70;;;;;;5045677;28;20029;-56
2021/04/07 07:58:08;;;;;;;1.70;1.17;;;4.70;99.70;;;;;;5045962;28;20017;-56
2021/04/07 08:00:34;;;;;;;2.13;1.30;;;4.80;99.00;;;;;;5045589;28;20051;-56
2021/04/07 08:03:13;;;;;;;4.05;1.85;;;4.70;98.30;;;;;;5046053;28;20017;-56
2021/04/07 08:05:40;;;;;;;2.85;1.70;;;4.70;98.20;;;;;;5045756;28;20029;-56
2021/04/07 08:08:06;;;;;;;2.00;1.30;;;4.70;98.60;;;;;;5045720;28;20037;-56
2021/04/07 08:10:32;;;;;;;2.92;1.45;;;4.70;98.60;;;;;;5043773;28;20598;-56
2021/04/07 08:13:01;;;;;;;3.47;1.65;;;4.80;98.00;;;;;;5045854;28;20021;-56
2021/04/07 08:15:29;;;;;;;2.40;1.50;;;4.80;98.10;;;;;;5069499;28;20077;-56
2021/04/07 08:17:56;;;;;;;3.38;1.60;;;4.80;98.20;;;;;;5059005;28;20021;-56
2021/04/07 08:20:22;;;;;;;3.33;1.52;;;4.90;97.70;;;;;;5049355;28;20037;-57
2021/04/07 08:22:50;;;;;;;2.65;1.42;;;4.80;97.00;;;;;;5049164;28;20014;-56
2021/04/07 08:25:17;;;;;;;2.05;1.30;;;4.80;97.00;;;;;;5049670;28;20029;-56
2021/04/07 08:27:43;;;;;;;4.43;2.10;;;4.80;96.90;;;;;;5048324;28;20024;-56
2021/04/07 08:30:10;;;;;;;2.53;1.38;;;4.90;97.40;;;;;;5049268;28;20044;-57
2021/04/07 08:32:37;;;;;;;3.00;1.52;;;5.00;97.40;;;;;;5049081;28;20024;-57
2021/04/07 08:35:05;;;;;;;3.85;1.70;;;4.70;96.90;;;;;;5047534;28;20356;-57
2021/04/07 08:37:33;;;;;;;2.00;1.30;;;4.60;96.30;;;;;;5061747;28;20074;-57
2021/04/07 08:40:16;;;;;;;2.47;1.35;;;4.50;96.30;;;;;;5056427;28;20528;-57
2021/04/07 08:42:42;;;;;;;4.47;2.23;;;4.70;95.80;;;;;;5074028;28;20483;-57
2021/04/07 08:45:10;;;;;;;1.85;1.27;;;4.90;94.80;;;;;;5049298;28;20025;-57
2021/04/07 08:47:45;;;;;;;2.95;1.35;;;5.20;95.30;;;;;;5058520;28;20404;-57
2021/04/07 08:50:15;;;;;;;3.40;1.63;;;5.30;94.10;;;;;;5045932;28;20025;-57
2021/04/07 08:52:41;;;;;;;1.95;1.20;;;5.30;93.40;;;;;;5060663;28;20024;-57
2021/04/07 08:55:13;;;;;;;3.38;1.67;;;5.20;93.80;;;;;;5067263;28;20426;-57
2021/04/07 08:57:40;;;;;;;3.00;1.60;;;5.30;94.30;;;;;;5066817;28;20472;-57
2021/04/07 09:00:16;;;;;;;2.88;1.48;;;5.10;92.70;;;;;;5048375;28;20032;-57
2021/04/07 09:02:50;;;;;;;2.20;1.40;;;5.10;92.50;;;;;;5050291;28;20033;-57
2021/04/07 09:05:16;;;;;;;4.93;1.30;;;5.10;92.10;;;;;;5060479;28;20043;-57
2021/04/07 09:07:44;;;;;;;1.55;1.10;;;5.40;91.60;;;;;;5065251;28;20033;-57
2021/04/07 09:10:19;;;;;;;1.13;0.88;;;5.50;90.70;;;;;;5047305;28;20078;-57
2021/04/07 09:12:48;;;;;;;2.10;1.10;;;5.50;90.30;;;;;;5047277;28;20051;-57
2021/04/07 09:15:18;;;;;;;2.03;1.00;;;5.70;91.00;;;;;;5047326;28;20086;-57
2021/04/07 09:17:46;;;;;;;2.25;1.20;;;5.80;90.10;;;;;;5047158;28;20029;-57
2021/04/07 09:20:38;;;;;;;2.00;1.50;;;6.20;90.60;;;;;;5047227;28;20028;-57
2021/04/07 09:23:28;;;;;;;1.80;1.20;;;6.10;90.50;;;;;;5046888;28;20035;-57
2021/04/07 09:26:05;;;;;;;1.55;0.95;;;6.00;90.50;;;;;;5045719;28;20021;-57
2021/04/07 09:28:41;;;;;;;1.25;0.75;;;6.00;88.40;;;;;;5045693;28;20029;-57
2021/04/07 09:31:18;;;;;;;6.30;1.30;;;6.10;88.80;;;;;;5045501;28;20053;-57
2021/04/07 09:33:48;;;;;;;1.00;0.90;;;5.70;85.70;;;;;;5057655;28;20039;-57
2021/04/07 09:36:16;;;;;;;2.80;1.05;;;5.90;87.80;;;;;;5051024;28;20127;-57
2021/04/07 09:38:47;;;;;;;3.03;1.00;;;6.00;87.10;;;;;;5046986;28;20559;-57
2021/04/07 09:41:19;;;;;;;1.40;0.77;;;6.10;87.60;;;;;;5046836;28;20399;-57
2021/04/07 09:43:45;;;;;;;3.30;1.20;;;6.30;84.90;;;;;;5046647;28;20076;-57
2021/04/07 09:46:11;;;;;;;4.30;1.20;;;5.90;83.80;;;;;;5046351;28;20025;-57
2021/04/07 09:48:37;;;;;;;1.65;1.05;;;5.90;85.40;;;;;;5045971;28;20144;-57
2021/04/07 09:51:37;;;;;;;2.70;1.17;;;5.80;85.60;;;;;;5046215;28;20029;-57
2021/04/07 09:54:20;;;;;;;2.33;1.10;;;6.10;85.60;;;;;;5048032;28;20044;-57
2021/04/07 09:56:45;;;;;;;2.83;1.00;;;6.20;85.00;;;;;;5050567;28;20040;-57
2021/04/07 09:59:11;;;;;;;2.25;1.42;;;6.20;84.30;;;;;;5047092;28;20037;-57
2021/04/07 10:01:40;;;;;;;1.98;1.13;;;5.90;83.70;;;;;;5060245;28;20031;-57
2021/04/07 10:04:06;;;;;;;3.30;1.33;;;6.00;84.20;;;;;;5062868;28;20033;-57
2021/04/07 10:06:32;;;;;;;2.13;1.27;;;5.80;82.70;;;;;;5044959;28;20033;-57
2021/04/07 10:09:09;;;;;;;2.00;0.70;;;5.70;82.80;;;;;;5044741;28;20040;-57
2021/04/07 10:11:42;;;;;;;2.15;0.90;;;6.00;82.60;;;;;;5051071;28;20079;-57
2021/04/07 10:14:09;;;;;;;1.27;0.90;;;6.20;80.70;;;;;;5064888;28;20028;-57
2021/04/07 10:16:38;;;;;;;2.00;0.88;;;6.40;80.80;;;;;;5050084;28;20037;-57
2021/04/07 10:19:09;;;;;;;1.23;0.65;;;6.60;80.80;;;;;;5044940;28;20021;-54
2021/04/07 10:21:37;;;;;;;1.40;0.75;;;6.80;81.10;;;;;;5044577;28;20036;-56
2021/04/07 10:24:04;;;;;;;4.75;1.33;;;6.80;79.50;;;;;;5055287;28;20021;-57
2021/04/07 10:26:32;;;;;;;2.97;1.58;;;6.60;78.30;;;;;;5060436;28;20186;-57
2021/04/07 10:29:02;;;;;;;2.85;1.40;;;6.40;78.50;;;;;;5062009;28;20021;-57
2021/04/07 10:31:30;;;;;;;3.33;1.20;;;6.50;79.30;;;;;;5044894;28;20130;-56
2021/04/07 10:34:09;;;;;;;3.28;1.65;;;6.60;78.80;;;;;;5043319;28;20396;-57
2021/04/07 10:36:39;;;;;;;3.20;1.50;;;6.40;78.00;;;;;;5044692;28;20049;-58
2021/04/07 10:39:15;;;;;;;2.30;1.15;;;6.20;76.80;;;;;;5044808;28;20056;-56
2021/04/07 10:41:49;;;;;;;2.10;1.15;;;6.50;75.30;;;;;;5051553;28;20751;-56
2021/04/07 10:44:22;;;;;;;2.45;1.17;;;6.60;74.20;;;;;;5065118;28;20392;-53
2021/04/07 10:46:49;;;;;;;1.97;1.13;;;6.80;72.50;;;;;;5064399;28;20031;-54
2021/04/07 10:49:15;;;;;;;2.85;1.20;;;7.10;76.00;;;;;;5047023;28;20306;-56
2021/04/07 10:51:41;;;;;;;3.92;1.30;;;6.70;76.10;;;;;;5048162;28;20039;-57
2021/04/07 10:54:10;;;;;;;2.30;0.95;;;6.70;75.90;;;;;;5054277;28;20028;-57
2021/04/07 10:56:36;;;;;;;2.60;1.23;;;7.00;75.60;;;;;;5064194;28;20526;-55
2021/04/07 10:59:05;;;;;;;2.97;1.20;;;7.00;76.00;;;;;;5047136;28;20479;-56
2021/04/07 11:01:37;;;;;;;3.40;2.08;;;7.00;74.90;;;;;;5044183;28;20042;-56
2021/04/07 11:04:15;;;;;;;3.03;1.60;;;7.00;74.70;;;;;;5044275;28;20075;-57
2021/04/07 11:06:42;;;;;;;6.18;2.75;;;7.00;74.20;;;;;;5043902;28;20040;-54
2021/04/07 11:09:11;;;;;;;5.50;2.40;;;6.40;74.10;;;;;;5043600;28;20132;-55
2021/04/07 11:11:40;;;;;;;7.07;3.40;;;6.50;75.80;;;;;;5043840;28;20056;-54
2021/04/07 11:14:07;;;;;;;3.58;1.83;;;6.50;74.70;;;;;;5044176;28;20541;-56
2021/04/07 11:16:34;;;;;;;3.75;1.60;;;6.90;74.80;;;;;;5043734;28;20029;-55
2021/04/07 11:19:01;;;;;;;4.05;1.50;;;7.40;75.40;;;;;;5044028;28;20017;-54
2021/04/07 11:21:27;;;;;;;5.18;1.70;;;7.40;72.90;;;;;;5043701;28;20037;-54
2021/04/07 11:23:53;;;;;;;4.85;2.20;;;7.20;72.10;;;;;;5043922;28;20022;-54
2021/04/07 11:26:19;;;;;;;5.93;2.65;;;7.00;72.60;;;;;;5044178;28;20113;-56
2021/04/07 11:28:44;;;;;;;4.30;1.83;;;6.80;73.70;;;;;;5062011;28;20115;-55
2021/04/07 11:31:13;;;;;;;3.63;1.60;;;7.30;75.70;;;;;;5064040;28;20473;-55
2021/04/07 11:33:45;;;;;;;3.63;1.38;;;7.30;75.00;;;;;;5064034;28;20127;-56
2021/04/07 11:46:30;;;;;;;1.23;0.80;;;8.30;71.60;;;;;;5043897;28;19908;-56
2021/04/07 11:48:56;;;;;;;3.92;2.03;;;8.60;71.30;;;;;;5045922;28;20055;-55
2021/04/07 11:51:23;;;;;;;6.35;2.72;;;8.50;70.20;;;;;;5048178;28;20037;-55
2021/04/07 11:53:49;;;;;;;4.22;1.92;;;8.20;68.50;;;;;;5047283;28;20036;-56
2021/04/07 11:56:17;;;;;;;6.00;1.90;;;8.10;69.70;;;;;;5065989;28;20406;-56
2021/04/07 11:58:43;;;;;;;3.75;1.70;;;8.60;70.30;;;;;;5067974;28;20027;-55
2021/04/07 12:01:09;;;;;;;2.47;1.38;;;8.70;67.70;;;;;;5067833;28;20029;-55
2021/04/07 12:03:35;;;;;;;3.13;1.50;;;8.50;67.80;;;;;;5067262;28;20036;-56
2021/04/07 12:06:02;;;;;;;2.92;1.52;;;8.50;68.70;;;;;;5067714;28;20021;-56
2021/04/07 12:08:28;;;;;;;3.72;1.50;;;8.70;68.50;;;;;;5066757;28;20347;-56
2021/04/07 12:10:57;;;;;;;2.47;1.15;;;8.90;67.20;;;;;;5067493;28;20020;-55
2021/04/07 12:13:23;;;;;;;2.08;1.00;;;9.00;65.70;;;;;;5067248;28;20033;-56
2021/04/07 12:15:49;;;;;;;3.83;1.60;;;9.30;66.90;;;;;;5066843;28;20017;-55
2021/04/07 12:18:14;;;;;;;6.00;2.08;;;9.30;65.50;;;;;;5068066;28;20028;-55
2021/04/07 12:20:41;;;;;;;4.68;1.50;;;9.20;66.10;;;;;;5051275;28;20025;-56
2021/04/07 12:23:07;;;;;;;2.60;1.30;;;9.30;65.90;;;;;;5047300;28;20949;-56
2021/04/07 12:25:33;;;;;;;1.98;1.35;;;9.70;66.10;;;;;;5046882;28;20423;-55
2021/04/07 12:28:00;;;;;;;2.70;1.45;;;9.40;64.30;;;;;;5047058;28;20032;-55
2021/04/07 12:30:25;;;;;;;3.80;1.30;;;9.30;64.90;;;;;;5046998;28;20029;-53
2021/04/07 12:32:53;;;;;;;3.63;1.63;;;8.80;63.70;;;;;;5047512;28;20037;-55
2021/04/07 12:36:05;;;;;;;1.73;1.08;;;8.40;65.00;;;;;;5047053;28;20402;-55
2021/04/07 12:38:32;;;;;;;1.60;1.10;;;9.10;66.40;;;;;;5046574;28;20029;-56
2021/04/07 12:41:00;;;;;;;2.70;1.10;;;9.40;63.80;;;;;;5047134;28;20025;-54
2021/04/07 12:43:25;;;;;;;1.30;0.90;;;9.40;63.40;;;;;;5046693;28;20503;-56
2021/04/07 12:45:51;;;;;;;1.52;0.70;;;9.70;63.80;;;;;;5053409;28;20068;-56
2021/04/07 12:48:19;;;;;;;1.20;0.70;;;10.00;62.80;;;;;;5066828;28;20067;-56
2021/04/07 12:50:46;;;;;;;2.25;0.95;;;10.00;62.00;;;;;;5057580;28;20027;-55
2021/04/07 12:53:12;;;;;;;2.40;1.20;;;9.70;60.30;;;;;;5047369;28;20025;-56
2021/04/07 12:55:39;;;;;;;2.10;0.88;;;9.90;59.70;;;;;;5046241;28;20083;-56
2021/04/07 12:58:06;;;;;;;1.48;0.70;;;10.20;60.10;;;;;;5044456;28;20064;-53
2021/04/07 13:00:32;;;;;;;1.73;0.88;;;10.30;61.10;;;;;;5044724;28;20021;-55
2021/04/07 13:02:58;;;;;;;2.42;1.10;;;10.40;61.30;;;;;;5046485;28;20019;-56
2021/04/07 13:05:24;;;;;;;1.80;1.10;;;9.50;61.30;;;;;;5052571;28;20025;-56
2021/04/07 13:07:50;;;;;;;1.23;0.73;;;10.00;62.60;;;;;;5050100;28;20384;-56
2021/04/07 13:10:18;;;;;;;2.70;1.38;;;10.50;60.40;;;;;;5048795;28;20029;-56
2021/04/07 13:12:45;;;;;;;2.25;1.13;;;10.20;60.40;;;;;;5063582;28;20521;-56